Time;durP1;ratioP1;P1;durP2;ratioP2;P2;SDS_P1;SDS_P2;PMS_P1;PMS_P2;Temp;Humidity;BMP_temperature;BMP_pressure;BME280_temperature;BME280_humidity;BME280_pressure;Samples;Min_cycle;Max_cycle;Signal;HPM_P1;HPM_P2
2023/03/03 00:01:15;;;;;;;9.60;8.03;;;2.00;99.90;;;;;;5090937;28;20314;-70
2023/03/03 00:03:42;;;;;;;8.30;7.40;;;1.90;99.90;;;;;;5090840;28;20207;-71
2023/03/03 00:06:11;;;;;;;8.63;7.73;;;2.00;99.90;;;;;;5090628;28;20290;-70
2023/03/03 00:08:38;;;;;;;9.00;7.87;;;2.00;99.90;;;;;;5089991;28;20247;-70
2023/03/03 00:11:06;;;;;;;9.20;7.77;;;1.90;99.90;;;;;;5090587;28;20293;-72
2023/03/03 00:13:44;;;;;;;8.47;7.53;;;1.90;99.90;;;;;;5090953;28;20214;-72
2023/03/03 00:16:17;;;;;;;8.93;7.87;;;1.90;99.90;;;;;;5090735;28;20278;-72
2023/03/03 00:18:46;;;;;;;10.43;9.13;;;1.90;99.90;;;;;;5090362;28;20589;-72
2023/03/03 00:21:29;;;;;;;8.87;7.97;;;1.90;99.90;;;;;;5072726;28;20195;-72
2023/03/03 00:24:16;;;;;;;8.60;7.53;;;1.90;99.90;;;;;;5070100;28;20290;-72
2023/03/03 00:26:46;;;;;;;8.83;7.93;;;1.90;99.90;;;;;;5084769;28;20233;-71
2023/03/03 00:29:30;;;;;;;11.50;8.00;;;1.90;99.90;;;;;;5090368;28;20289;-71
2023/03/03 00:32:12;;;;;;;9.33;8.30;;;1.80;99.90;;;;;;5089962;28;20679;-71
2023/03/03 00:34:40;;;;;;;8.43;7.63;;;1.70;99.90;;;;;;5089802;28;20195;-71
2023/03/03 00:37:23;;;;;;;9.70;8.70;;;1.70;99.90;;;;;;5090568;28;20215;-69
2023/03/03 00:39:50;;;;;;;9.90;8.57;;;1.70;99.90;;;;;;5089701;28;20274;-70
2023/03/03 00:42:18;;;;;;;10.13;8.13;;;1.70;99.90;;;;;;5089943;28;20317;-70
2023/03/03 00:44:48;;;;;;;10.37;8.50;;;1.70;99.90;;;;;;5089704;28;20337;-70
2023/03/03 00:47:25;;;;;;;9.10;7.83;;;1.70;99.90;;;;;;5089528;28;20231;-69
2023/03/03 00:49:53;;;;;;;8.67;7.43;;;1.80;99.90;;;;;;5089340;28;20569;-69
2023/03/03 00:52:20;;;;;;;8.57;7.67;;;1.80;99.90;;;;;;5089611;28;20226;-69
2023/03/03 00:54:47;;;;;;;10.17;7.87;;;1.80;99.90;;;;;;5089501;28;20307;-69
2023/03/03 00:57:14;;;;;;;8.70;7.80;;;1.80;99.90;;;;;;5089642;28;20365;-69
2023/03/03 00:59:41;;;;;;;9.33;8.20;;;1.70;99.90;;;;;;5089590;28;20230;-70
2023/03/03 01:02:09;;;;;;;8.80;7.90;;;1.70;99.90;;;;;;5089400;28;20289;-69
2023/03/03 01:04:36;;;;;;;7.67;6.87;;;1.50;99.90;;;;;;5089243;28;20231;-69
2023/03/03 01:07:03;;;;;;;9.27;7.30;;;1.50;99.90;;;;;;5089222;28;20293;-70
2023/03/03 01:09:30;;;;;;;9.10;7.80;;;1.50;99.90;;;;;;5089306;28;20213;-69
2023/03/03 01:11:57;;;;;;;9.67;7.97;;;1.50;99.90;;;;;;5089224;28;20301;-70
2023/03/03 01:14:24;;;;;;;8.53;7.63;;;1.40;99.90;;;;;;5088871;28;20690;-70
2023/03/03 01:16:51;;;;;;;8.97;8.07;;;1.40;99.90;;;;;;5088988;28;20242;-69
2023/03/03 01:19:19;;;;;;;8.43;7.60;;;1.50;99.90;;;;;;5080298;28;20737;-69
2023/03/03 01:21:46;;;;;;;8.67;7.77;;;1.50;99.90;;;;;;5073721;28;20282;-69
2023/03/03 01:24:13;;;;;;;8.53;7.63;;;1.50;99.90;;;;;;5089019;28;20202;-69
2023/03/03 01:26:40;;;;;;;8.77;7.83;;;1.50;99.90;;;;;;5074446;28;20310;-69
2023/03/03 01:29:07;;;;;;;8.70;7.77;;;1.50;99.90;;;;;;5085412;28;20321;-69
2023/03/03 01:31:33;;;;;;;8.63;7.80;;;1.50;99.90;;;;;;5088591;28;20205;-69
2023/03/03 01:34:00;;;;;;;8.53;7.63;;;1.40;99.90;;;;;;5088913;28;20253;-69
2023/03/03 01:36:29;;;;;;;8.80;7.70;;;1.40;99.90;;;;;;5088683;28;20221;-69
2023/03/03 01:38:56;;;;;;;8.93;7.93;;;1.30;99.90;;;;;;5088235;28;20305;-69
2023/03/03 01:41:23;;;;;;;8.97;8.07;;;1.30;99.90;;;;;;5088538;28;20871;-69
2023/03/03 01:43:51;;;;;;;8.53;7.53;;;1.30;99.90;;;;;;5088819;28;20628;-68
2023/03/03 01:46:44;;;;;;;8.33;7.50;;;1.50;99.90;;;;;;5088086;28;20214;-70
2023/03/03 01:49:15;;;;;;;8.47;7.57;;;1.40;99.90;;;;;;5088539;28;20222;-70
2023/03/03 01:51:49;;;;;;;8.30;7.30;;;1.40;99.90;;;;;;5088604;28;20285;-69
2023/03/03 01:54:21;;;;;;;8.63;7.50;;;1.40;99.90;;;;;;5087556;28;20276;-70
2023/03/03 01:56:49;;;;;;;8.43;7.40;;;1.50;99.90;;;;;;5088667;28;20226;-70
2023/03/03 01:59:19;;;;;;;8.93;7.83;;;1.50;99.90;;;;;;5088546;28;20203;-69
2023/03/03 02:01:48;;;;;;;8.40;7.60;;;1.40;99.90;;;;;;5088265;28;20211;-69
2023/03/03 02:04:15;;;;;;;9.47;8.47;;;1.50;99.90;;;;;;5088076;28;20206;-69
2023/03/03 02:06:49;;;;;;;8.10;7.30;;;1.50;99.90;;;;;;5088428;28;20551;-71
2023/03/03 02:09:23;;;;;;;10.30;7.97;;;1.50;99.90;;;;;;5088145;28;20337;-71
2023/03/03 02:11:52;;;;;;;10.27;8.57;;;1.50;99.90;;;;;;5088520;28;20227;-70
2023/03/03 02:14:19;;;;;;;11.47;9.30;;;1.40;99.90;;;;;;5091957;28;20674;-71
2023/03/03 02:16:46;;;;;;;11.07;9.13;;;1.30;99.90;;;;;;5088015;28;20214;-71
2023/03/03 02:19:21;;;;;;;10.00;8.87;;;1.30;99.90;;;;;;5080020;28;20295;-71
2023/03/03 02:21:50;;;;;;;11.13;9.10;;;1.20;99.90;;;;;;5068076;28;20548;-70
2023/03/03 02:24:26;;;;;;;12.03;8.97;;;1.20;99.90;;;;;;5071161;28;20282;-70
2023/03/03 02:26:55;;;;;;;11.23;9.60;;;1.20;99.90;;;;;;5087602;28;20214;-70
2023/03/03 02:29:22;;;;;;;11.70;9.60;;;1.20;99.90;;;;;;5087773;28;20226;-70
2023/03/03 02:31:48;;;;;;;12.30;9.83;;;1.10;99.90;;;;;;5087368;28;20286;-70
2023/03/03 02:34:15;;;;;;;10.87;9.67;;;1.00;99.90;;;;;;5087919;28;20298;-70
2023/03/03 02:36:42;;;;;;;12.07;9.73;;;1.10;99.90;;;;;;5087480;28;20749;-70
2023/03/03 02:39:13;;;;;;;12.97;10.23;;;1.10;99.90;;;;;;5087712;28;20213;-69
2023/03/03 02:41:46;;;;;;;11.13;9.40;;;1.10;99.90;;;;;;5087874;28;20187;-70
2023/03/03 02:44:16;;;;;;;12.13;10.03;;;1.20;99.90;;;;;;5087875;28;20293;-70
2023/03/03 02:46:45;;;;;;;11.50;9.43;;;1.20;99.90;;;;;;5087477;28;20286;-70
2023/03/03 02:49:14;;;;;;;13.67;9.93;;;1.20;99.90;;;;;;5079821;28;20234;-70
2023/03/03 02:51:42;;;;;;;13.70;9.93;;;1.20;99.90;;;;;;5087818;28;20237;-70
2023/03/03 02:54:10;;;;;;;12.70;10.27;;;1.20;99.90;;;;;;5087561;28;20736;-70
2023/03/03 02:56:37;;;;;;;12.20;9.93;;;1.20;99.90;;;;;;5087327;28;20302;-70
2023/03/03 02:59:05;;;;;;;13.10;10.00;;;1.20;99.90;;;;;;5087653;28;20299;-70
2023/03/03 03:01:35;;;;;;;11.23;8.60;;;1.20;99.90;;;;;;5087597;28;20553;-70
2023/03/03 03:04:05;;;;;;;10.40;8.93;;;1.20;99.90;;;;;;5087769;28;20210;-72
2023/03/03 03:06:33;;;;;;;11.43;9.17;;;1.20;99.90;;;;;;5087675;28;20218;-71
2023/03/03 03:09:00;;;;;;;12.63;9.37;;;1.20;99.90;;;;;;5086765;28;20242;-72
2023/03/03 03:11:27;;;;;;;11.47;9.10;;;1.20;99.90;;;;;;5087925;28;20716;-72
2023/03/03 03:13:54;;;;;;;11.63;8.90;;;1.30;99.90;;;;;;5087497;28;20584;-70
2023/03/03 03:16:21;;;;;;;10.33;8.60;;;1.30;99.90;;;;;;5087650;28;20233;-71
2023/03/03 03:18:50;;;;;;;11.43;8.83;;;1.30;99.90;;;;;;5083047;28;20225;-71
2023/03/03 03:21:17;;;;;;;11.43;9.13;;;1.30;99.90;;;;;;5087615;28;20226;-70
2023/03/03 03:23:44;;;;;;;9.63;7.90;;;1.30;99.90;;;;;;5087013;28;20203;-71
2023/03/03 03:26:12;;;;;;;10.50;8.50;;;1.30;99.90;;;;;;5087065;28;20770;-71
2023/03/03 03:28:39;;;;;;;11.53;8.87;;;1.40;99.90;;;;;;5080081;28;20326;-70
2023/03/03 03:31:07;;;;;;;12.07;8.87;;;1.40;99.90;;;;;;5083671;28;20206;-71
2023/03/03 03:33:34;;;;;;;10.87;8.40;;;1.40;99.90;;;;;;5084838;28;20739;-71
2023/03/03 03:36:05;;;;;;;10.93;8.70;;;1.40;99.90;;;;;;5084256;28;21070;-70
2023/03/03 03:38:32;;;;;;;9.83;8.37;;;1.40;99.90;;;;;;5084882;28;21013;-71
2023/03/03 03:41:00;;;;;;;11.30;8.90;;;1.40;99.90;;;;;;5084570;28;20264;-71
2023/03/03 03:43:26;;;;;;;9.93;8.83;;;1.40;99.90;;;;;;5084928;28;20242;-71
2023/03/03 03:45:53;;;;;;;9.90;8.10;;;1.30;99.90;;;;;;5084450;28;20210;-71
2023/03/03 03:48:20;;;;;;;12.17;7.77;;;1.30;99.90;;;;;;5084969;28;20233;-70
2023/03/03 03:50:48;;;;;;;12.43;7.90;;;1.30;99.90;;;;;;5084547;28;20214;-71
2023/03/03 03:53:20;;;;;;;8.13;7.20;;;1.20;99.90;;;;;;5084405;28;20217;-70
2023/03/03 03:55:47;;;;;;;9.10;7.70;;;1.10;99.90;;;;;;5084718;28;20305;-70
2023/03/03 03:58:15;;;;;;;9.70;7.83;;;1.10;99.90;;;;;;5085125;28;20313;-71
2023/03/03 04:00:43;;;;;;;13.20;8.30;;;1.20;99.90;;;;;;5084651;28;20369;-71
2023/03/03 04:03:10;;;;;;;11.13;8.27;;;1.20;99.90;;;;;;5085236;28;20238;-71
2023/03/03 04:05:37;;;;;;;9.37;8.07;;;1.20;99.90;;;;;;5085102;28;20302;-69
2023/03/03 04:08:04;;;;;;;9.10;8.00;;;1.20;99.90;;;;;;5086271;28;20261;-71
2023/03/03 04:10:32;;;;;;;11.20;7.87;;;1.20;99.90;;;;;;5088053;28;20294;-70
2023/03/03 04:12:59;;;;;;;10.10;7.97;;;1.20;99.90;;;;;;5090550;28;20294;-71
2023/03/03 04:15:26;;;;;;;9.77;8.37;;;1.20;99.90;;;;;;5089538;28;20207;-71
2023/03/03 04:17:53;;;;;;;9.30;7.93;;;1.20;99.90;;;;;;5090317;28;20293;-70
2023/03/03 04:20:20;;;;;;;9.03;7.87;;;1.20;99.90;;;;;;5072746;28;20330;-70
2023/03/03 04:22:47;;;;;;;11.03;8.80;;;1.20;99.90;;;;;;5069516;28;21147;-70
2023/03/03 04:25:16;;;;;;;13.17;9.57;;;1.20;99.90;;;;;;5069872;28;20630;-70
2023/03/03 04:27:45;;;;;;;12.80;9.03;;;1.20;99.90;;;;;;5069744;28;20336;-70
2023/03/03 04:30:14;;;;;;;15.23;9.87;;;1.20;99.90;;;;;;5071823;28;20698;-70
2023/03/03 04:32:41;;;;;;;13.40;9.40;;;1.20;99.90;;;;;;5089731;28;20293;-70
2023/03/03 04:35:09;;;;;;;12.37;9.37;;;1.20;99.90;;;;;;5090184;28;20745;-70
2023/03/03 04:37:37;;;;;;;11.37;9.17;;;1.20;99.90;;;;;;5090052;28;20370;-71
2023/03/03 04:40:05;;;;;;;12.80;9.27;;;1.10;99.90;;;;;;5089998;28;20211;-70
2023/03/03 04:42:32;;;;;;;11.20;9.07;;;1.10;99.90;;;;;;5089673;28;20246;-70
2023/03/03 04:45:00;;;;;;;13.30;10.17;;;1.10;99.90;;;;;;5089612;28;20293;-70
2023/03/03 04:47:27;;;;;;;11.23;9.23;;;1.10;99.90;;;;;;5090021;28;20320;-71
2023/03/03 04:49:54;;;;;;;13.33;9.17;;;1.10;99.90;;;;;;5089489;28;20317;-70
2023/03/03 04:52:21;;;;;;;14.60;9.83;;;1.10;99.90;;;;;;5089587;28;20260;-70
2023/03/03 04:54:48;;;;;;;14.43;9.50;;;1.10;99.90;;;;;;5089637;28;20242;-70
2023/03/03 04:57:14;;;;;;;14.77;10.33;;;1.00;99.90;;;;;;5089479;28;20290;-70
2023/03/03 04:59:41;;;;;;;12.60;9.27;;;1.00;99.90;;;;;;5089446;28;20293;-70
2023/03/03 05:02:11;;;;;;;15.87;10.20;;;1.00;99.90;;;;;;5089339;28;20696;-70
2023/03/03 05:04:39;;;;;;;17.73;10.27;;;0.80;99.90;;;;;;5089278;28;20198;-70
2023/03/03 05:07:06;;;;;;;14.30;9.70;;;0.80;99.90;;;;;;5089421;28;20289;-70
2023/03/03 05:09:32;;;;;;;17.00;9.33;;;0.70;99.90;;;;;;5089320;28;20317;-70
2023/03/03 05:11:59;;;;;;;13.27;9.73;;;0.50;99.90;;;;;;5089608;28;20290;-70
2023/03/03 05:14:27;;;;;;;13.10;9.33;;;0.50;99.90;;;;;;5089273;28;20203;-70
2023/03/03 05:16:54;;;;;;;13.50;9.60;;;0.60;99.90;;;;;;5089081;28;20287;-70
2023/03/03 05:19:23;;;;;;;14.53;9.87;;;0.60;99.90;;;;;;5089156;28;20732;-70
2023/03/03 05:21:49;;;;;;;14.20;9.37;;;0.70;99.90;;;;;;5088187;28;20218;-70
2023/03/03 05:24:17;;;;;;;16.03;8.67;;;0.60;99.90;;;;;;5088774;28;20327;-70
2023/03/03 05:26:43;;;;;;;17.33;9.70;;;0.40;99.90;;;;;;5088944;28;20283;-71
2023/03/03 05:29:10;;;;;;;14.87;9.07;;;0.30;99.90;;;;;;5088896;28;20313;-71
2023/03/03 05:31:37;;;;;;;11.37;8.53;;;0.20;99.90;;;;;;5088338;28;20674;-71
2023/03/03 05:34:04;;;;;;;14.03;8.10;;;0.20;99.90;;;;;;5089235;28;20242;-71
2023/03/03 05:36:32;;;;;;;13.90;8.63;;;0.30;99.90;;;;;;5089046;28;20229;-71
2023/03/03 05:38:59;;;;;;;11.30;8.00;;;0.20;99.90;;;;;;5088786;28;20303;-70
2023/03/03 05:41:26;;;;;;;10.50;8.10;;;0.20;99.90;;;;;;5088808;28;20293;-70
2023/03/03 05:43:53;;;;;;;12.07;8.20;;;0.20;99.90;;;;;;5088849;28;20290;-70
2023/03/03 05:46:20;;;;;;;12.53;8.77;;;0.20;99.90;;;;;;5088348;28;20293;-70
2023/03/03 05:48:47;;;;;;;12.87;8.80;;;0.20;99.90;;;;;;5083694;28;20223;-71
2023/03/03 05:51:13;;;;;;;11.00;8.47;;;0.30;99.90;;;;;;5085542;28;20289;-71
2023/03/03 05:53:42;;;;;;;20.83;8.77;;;0.40;99.90;;;;;;5087994;28;20659;-71
2023/03/03 05:56:09;;;;;;;16.27;9.50;;;0.50;99.90;;;;;;5088443;28;20294;-69
2023/03/03 05:58:35;;;;;;;12.37;8.97;;;0.60;99.90;;;;;;5088750;28;20286;-69
2023/03/03 06:01:02;;;;;;;12.43;8.80;;;0.60;99.90;;;;;;5088768;28;20203;-69
2023/03/03 06:03:30;;;;;;;15.77;10.03;;;0.50;99.90;;;;;;5088489;28;20207;-70
2023/03/03 06:05:57;;;;;;;13.83;9.30;;;0.50;99.90;;;;;;5085092;28;20210;-70
2023/03/03 06:08:24;;;;;;;20.47;10.13;;;0.50;99.90;;;;;;5087463;28;20227;-70
2023/03/03 06:10:52;;;;;;;17.07;10.87;;;0.40;99.90;;;;;;5087986;28;20313;-70
2023/03/03 06:13:19;;;;;;;14.57;9.70;;;0.40;99.90;;;;;;5088183;28;20301;-70
2023/03/03 06:15:46;;;;;;;19.13;11.03;;;0.50;99.90;;;;;;5088002;28;20299;-70
2023/03/03 06:18:13;;;;;;;13.67;9.47;;;0.50;99.90;;;;;;5088152;28;20199;-70
2023/03/03 06:20:40;;;;;;;15.23;10.67;;;0.70;99.90;;;;;;5088145;28;20249;-70
2023/03/03 06:23:07;;;;;;;17.40;11.30;;;0.70;99.90;;;;;;5087995;28;20294;-70
2023/03/03 06:25:34;;;;;;;15.07;9.90;;;0.90;99.90;;;;;;5087882;28;20569;-70
2023/03/03 06:28:03;;;;;;;16.33;10.43;;;1.00;99.90;;;;;;5087856;28;20256;-70
2023/03/03 06:30:30;;;;;;;15.63;10.23;;;1.00;99.90;;;;;;5088208;28;20635;-70
2023/03/03 06:32:57;;;;;;;13.17;9.27;;;1.00;99.90;;;;;;5087581;28;20245;-70
2023/03/03 06:35:24;;;;;;;15.60;10.10;;;1.10;99.90;;;;;;5088263;28;20207;-70
2023/03/03 06:37:51;;;;;;;13.37;9.27;;;1.10;99.90;;;;;;5088081;28;20318;-70
2023/03/03 06:40:18;;;;;;;13.07;9.03;;;1.00;99.90;;;;;;5088265;28;20206;-70
2023/03/03 06:42:45;;;;;;;15.13;10.00;;;1.00;99.90;;;;;;5087565;28;20252;-70
2023/03/03 06:45:14;;;;;;;17.03;9.20;;;0.90;99.90;;;;;;5087705;28;20214;-70
2023/03/03 06:47:41;;;;;;;14.13;9.40;;;0.80;99.90;;;;;;5087477;28;20203;-70
2023/03/03 06:50:11;;;;;;;14.83;8.53;;;0.70;99.90;;;;;;5087871;28;20305;-70
2023/03/03 06:52:38;;;;;;;16.47;9.17;;;0.50;99.90;;;;;;5087473;28;20675;-70
2023/03/03 06:55:12;;;;;;;13.53;8.63;;;0.50;99.90;;;;;;5087705;28;20742;-70
2023/03/03 06:57:41;;;;;;;13.57;8.17;;;0.50;99.90;;;;;;5087825;28;20205;-70
2023/03/03 07:00:16;;;;;;;15.87;8.83;;;0.40;99.90;;;;;;5087361;28;20206;-70
2023/03/03 07:02:43;;;;;;;11.93;8.47;;;0.30;99.90;;;;;;5087408;28;20227;-70
2023/03/03 07:05:12;;;;;;;15.13;8.00;;;0.30;99.90;;;;;;5087462;28;20297;-70
2023/03/03 07:07:39;;;;;;;12.37;7.93;;;0.30;99.90;;;;;;5086915;28;20322;-70
2023/03/03 07:10:14;;;;;;;11.50;7.23;;;0.30;99.90;;;;;;5087527;28;20302;-70
2023/03/03 07:12:41;;;;;;;10.63;7.80;;;0.30;99.90;;;;;;5087136;28;20202;-70
2023/03/03 07:15:17;;;;;;;13.40;7.50;;;0.10;99.90;;;;;;5087211;28;20739;-70
2023/03/03 07:17:47;;;;;;;12.43;7.50;;;0.00;99.90;;;;;;5087583;28;20681;-70
2023/03/03 07:20:19;;;;;;;10.17;7.27;;;0.00;99.90;;;;;;5087460;28;20643;-70
2023/03/03 07:22:46;;;;;;;13.93;8.00;;;0.10;99.90;;;;;;5086875;28;20281;-70
2023/03/03 07:25:21;;;;;;;11.50;6.97;;;0.20;99.90;;;;;;5087454;28;20632;-70
2023/03/03 07:27:48;;;;;;;15.07;8.00;;;0.30;99.90;;;;;;5087138;28;20205;-69
2023/03/03 07:30:26;;;;;;;14.80;8.10;;;0.40;99.90;;;;;;5083899;28;20592;-70
2023/03/03 07:32:55;;;;;;;12.40;8.00;;;0.40;99.90;;;;;;5067073;28;20303;-70
2023/03/03 07:35:38;;;;;;;15.53;7.70;;;0.40;99.90;;;;;;5067133;28;21082;-70
2023/03/03 07:38:17;;;;;;;12.00;7.20;;;0.40;99.90;;;;;;5077114;28;20678;-70
2023/03/03 07:40:48;;;;;;;10.67;7.80;;;0.50;99.90;;;;;;5071652;28;20321;-70
2023/03/03 07:43:29;;;;;;;10.73;7.67;;;0.50;99.90;;;;;;5087227;28;20282;-70
2023/03/03 07:46:02;;;;;;;10.90;7.83;;;0.60;99.90;;;;;;5089440;28;20260;-70
2023/03/03 07:48:34;;;;;;;11.30;7.67;;;0.50;99.90;;;;;;5089051;28;20199;-70
2023/03/03 07:51:06;;;;;;;11.17;7.23;;;0.60;99.90;;;;;;5086251;28;20219;-70
2023/03/03 07:53:36;;;;;;;9.07;6.43;;;0.50;99.90;;;;;;5090919;28;20278;-70
2023/03/03 07:56:15;;;;;;;10.47;6.93;;;0.40;99.90;;;;;;5091012;28;20263;-70
2023/03/03 07:58:42;;;;;;;7.53;5.97;;;0.40;99.90;;;;;;5091026;28;20194;-70
2023/03/03 08:01:39;;;;;;;8.63;6.07;;;0.40;99.90;;;;;;5070513;28;20245;-70
2023/03/03 08:04:17;;;;;;;7.97;6.00;;;0.40;99.90;;;;;;5070592;28;20233;-70
2023/03/03 08:06:49;;;;;;;8.17;5.50;;;0.40;99.90;;;;;;5070483;28;20202;-70
2023/03/03 08:09:45;;;;;;;7.23;5.73;;;0.30;99.90;;;;;;5070066;28;20231;-70
2023/03/03 08:12:38;;;;;;;7.87;5.70;;;0.50;99.90;;;;;;5070698;28;20290;-70
2023/03/03 08:15:20;;;;;;;7.80;6.13;;;0.40;99.90;;;;;;5070371;28;20196;-70
2023/03/03 08:17:52;;;;;;;8.57;6.60;;;0.50;99.90;;;;;;5070198;28;20234;-70
2023/03/03 08:20:49;;;;;;;9.40;6.87;;;0.60;99.90;;;;;;5087742;28;20295;-70
2023/03/03 08:23:18;;;;;;;9.93;6.40;;;0.60;99.90;;;;;;5090570;28;20187;-70
2023/03/03 08:25:46;;;;;;;7.90;5.83;;;0.70;99.90;;;;;;5090475;28;20324;-70
2023/03/03 08:28:13;;;;;;;15.87;6.50;;;0.70;99.90;;;;;;5090468;28;20306;-70
2023/03/03 08:30:40;;;;;;;6.57;5.63;;;0.70;99.90;;;;;;5083618;28;20318;-70
2023/03/03 08:33:09;;;;;;;9.27;5.57;;;0.60;99.90;;;;;;5070444;28;20231;-70
2023/03/03 08:35:36;;;;;;;8.43;6.07;;;0.40;99.90;;;;;;5089715;28;20247;-70
2023/03/03 08:38:04;;;;;;;8.10;6.40;;;0.40;99.90;;;;;;5089660;28;20229;-70
2023/03/03 08:40:32;;;;;;;7.27;5.73;;;0.50;99.90;;;;;;5089971;28;20818;-71
2023/03/03 08:42:59;;;;;;;8.10;5.57;;;0.40;99.90;;;;;;5090045;28;20203;-70
2023/03/03 08:45:26;;;;;;;8.83;6.10;;;0.50;99.90;;;;;;5090178;28;20207;-71
2023/03/03 08:47:53;;;;;;;7.90;6.53;;;0.60;99.90;;;;;;5090080;28;20257;-70
2023/03/03 08:50:22;;;;;;;7.80;6.00;;;0.70;99.90;;;;;;5082175;28;20329;-71
2023/03/03 08:52:49;;;;;;;9.80;6.87;;;0.70;99.90;;;;;;5089391;28;20297;-71
2023/03/03 08:55:16;;;;;;;9.53;6.50;;;0.60;99.90;;;;;;5089535;28;20737;-70
2023/03/03 08:57:43;;;;;;;8.60;6.20;;;0.60;99.90;;;;;;5089345;28;20246;-70
2023/03/03 09:00:13;;;;;;;7.47;5.67;;;0.60;99.90;;;;;;5089941;28;20280;-71
2023/03/03 09:02:41;;;;;;;10.07;6.33;;;0.60;99.90;;;;;;5089416;28;21036;-71
2023/03/03 09:05:09;;;;;;;7.80;6.03;;;0.60;99.90;;;;;;5089592;28;20326;-71
2023/03/03 09:07:37;;;;;;;8.30;6.57;;;0.70;99.90;;;;;;5088944;28;20273;-71
2023/03/03 09:10:05;;;;;;;8.70;6.43;;;0.70;99.90;;;;;;5089165;28;20223;-71
2023/03/03 09:12:35;;;;;;;10.27;6.43;;;0.70;99.90;;;;;;5089538;28;20207;-70
2023/03/03 09:15:14;;;;;;;7.70;6.30;;;0.60;99.90;;;;;;5089556;28;20238;-70
2023/03/03 09:17:42;;;;;;;8.37;6.67;;;0.60;99.90;;;;;;5088900;28;20194;-71
2023/03/03 09:20:34;;;;;;;10.63;7.07;;;0.70;99.90;;;;;;5089180;28;20247;-70
2023/03/03 09:23:33;;;;;;;9.93;7.00;;;0.70;99.90;;;;;;5088873;28;20256;-71
2023/03/03 09:26:25;;;;;;;8.40;6.03;;;0.70;99.90;;;;;;5089028;28;20284;-71
2023/03/03 09:28:53;;;;;;;9.03;6.90;;;0.70;99.90;;;;;;5088953;28;20210;-71
2023/03/03 09:31:26;;;;;;;8.20;6.80;;;0.70;99.90;;;;;;5088375;28;20230;-71
2023/03/03 09:33:56;;;;;;;9.03;6.40;;;0.70;99.90;;;;;;5088633;28;20230;-70
2023/03/03 09:36:26;;;;;;;9.60;6.70;;;0.70;99.90;;;;;;5088877;28;20285;-70
2023/03/03 09:38:56;;;;;;;10.27;6.90;;;0.70;99.90;;;;;;5088622;28;20231;-71
2023/03/03 09:42:02;;;;;;;11.93;7.07;;;0.70;99.90;;;;;;5089019;28;20294;-71
2023/03/03 09:44:55;;;;;;;9.07;6.57;;;0.80;99.90;;;;;;5089175;28;20257;-71
2023/03/03 09:47:35;;;;;;;10.73;6.70;;;0.80;99.90;;;;;;5088815;28;20787;-71
2023/03/03 09:50:09;;;;;;;10.50;7.13;;;0.90;99.90;;;;;;5083321;28;20221;-71
2023/03/03 09:52:44;;;;;;;9.20;6.67;;;1.00;99.90;;;;;;5088619;28;20277;-70
2023/03/03 09:55:26;;;;;;;9.07;6.63;;;1.10;99.90;;;;;;5088978;28;20237;-70
2023/03/03 09:58:09;;;;;;;9.70;6.67;;;1.00;99.90;;;;;;5088846;28;20300;-70
2023/03/03 10:00:45;;;;;;;12.80;6.67;;;1.20;99.90;;;;;;5089089;28;20286;-70
2023/03/03 10:03:39;;;;;;;8.70;6.47;;;1.20;99.90;;;;;;5088465;28;20234;-70
2023/03/03 10:06:15;;;;;;;11.77;7.23;;;1.30;99.90;;;;;;5088713;28;20195;-71
2023/03/03 10:08:55;;;;;;;9.37;6.53;;;1.30;99.90;;;;;;5087502;28;20266;-71
2023/03/03 10:11:31;;;;;;;10.00;6.47;;;1.30;99.90;;;;;;5088241;28;20785;-71
2023/03/03 10:14:26;;;;;;;10.47;7.40;;;1.20;99.90;;;;;;5088389;28;20729;-71
2023/03/03 10:17:22;;;;;;;12.37;7.67;;;1.20;99.90;;;;;;5088322;28;20274;-70
2023/03/03 10:20:00;;;;;;;14.53;7.90;;;1.20;99.90;;;;;;5088062;28;20724;-71
2023/03/03 10:22:38;;;;;;;11.93;7.83;;;1.30;99.90;;;;;;5088399;28;20236;-71
2023/03/03 10:25:18;;;;;;;13.90;8.67;;;1.30;99.90;;;;;;5088624;28;20606;-70
2023/03/03 10:28:04;;;;;;;15.70;8.27;;;1.30;99.90;;;;;;5087684;28;20849;-70
2023/03/03 10:30:42;;;;;;;12.47;8.27;;;1.30;99.90;;;;;;5087682;28;20231;-71
2023/03/03 10:33:16;;;;;;;14.83;8.50;;;1.30;99.90;;;;;;5088415;28;20194;-70
2023/03/03 10:36:00;;;;;;;13.83;9.03;;;1.30;99.90;;;;;;5087670;28;20321;-71
2023/03/03 10:38:38;;;;;;;16.23;8.43;;;1.40;99.90;;;;;;5087227;28;20592;-71
2023/03/03 10:41:28;;;;;;;14.17;8.67;;;1.40;99.90;;;;;;5087818;28;20282;-71
2023/03/03 10:44:18;;;;;;;16.20;10.37;;;1.40;99.90;;;;;;5087615;28;20657;-70
2023/03/03 10:46:57;;;;;;;16.97;9.00;;;1.40;99.90;;;;;;5087697;28;20710;-70
2023/03/03 10:49:39;;;;;;;13.20;8.57;;;1.40;99.90;;;;;;5080100;28;20238;-71
2023/03/03 10:52:22;;;;;;;15.67;9.30;;;1.50;99.90;;;;;;5087280;28;20313;-71
2023/03/03 10:55:01;;;;;;;14.80;9.00;;;1.50;99.90;;;;;;5087501;28;20310;-71
2023/03/03 10:57:37;;;;;;;16.90;9.80;;;1.50;99.90;;;;;;5087566;28;20646;-71
2023/03/03 11:00:21;;;;;;;13.77;9.43;;;1.60;99.90;;;;;;5087935;28;20225;-71
2023/03/03 11:03:20;;;;;;;15.03;9.57;;;1.60;99.90;;;;;;5087652;28;20201;-71
2023/03/03 11:05:51;;;;;;;16.17;8.70;;;1.70;99.90;;;;;;5087669;28;20248;-71
2023/03/03 11:08:27;;;;;;;14.27;9.30;;;1.70;99.90;;;;;;5087243;28;20273;-70
2023/03/03 11:11:05;;;;;;;15.87;9.07;;;1.80;99.90;;;;;;5087187;28;20264;-71
2023/03/03 11:13:41;;;;;;;16.57;8.90;;;1.80;99.90;;;;;;5087644;28;20246;-71
2023/03/03 11:16:27;;;;;;;14.50;9.70;;;1.90;99.90;;;;;;5087522;28;20191;-71
2023/03/03 11:19:16;;;;;;;16.37;8.57;;;1.90;99.90;;;;;;5087609;28;20207;-71
2023/03/03 11:21:51;;;;;;;15.70;9.50;;;1.90;99.90;;;;;;5090802;28;20198;-71
2023/03/03 11:24:40;;;;;;;15.27;9.03;;;1.80;99.90;;;;;;5091527;28;20198;-71
2023/03/03 11:27:26;;;;;;;13.73;9.00;;;1.90;99.90;;;;;;5090971;28;20288;-71
2023/03/03 11:30:07;;;;;;;13.10;8.93;;;1.90;99.90;;;;;;5091672;28;20199;-71
2023/03/03 11:32:43;;;;;;;15.30;9.13;;;2.00;99.90;;;;;;5091382;28;20309;-71
2023/03/03 11:35:25;;;;;;;16.17;9.50;;;2.00;99.90;;;;;;5091351;28;20671;-71
2023/03/03 11:38:06;;;;;;;16.93;9.80;;;2.10;99.90;;;;;;5091119;28;20213;-71
2023/03/03 11:40:51;;;;;;;16.83;9.73;;;2.10;99.90;;;;;;5091686;28;20291;-71
2023/03/03 11:43:22;;;;;;;14.67;9.27;;;2.10;99.90;;;;;;5091617;28;20195;-71
2023/03/03 11:45:53;;;;;;;16.53;9.60;;;2.10;99.90;;;;;;5091372;28;20214;-71
2023/03/03 11:48:30;;;;;;;16.00;10.37;;;2.10;99.90;;;;;;5091565;28;20295;-71
2023/03/03 11:51:01;;;;;;;16.03;9.53;;;2.10;99.90;;;;;;5090867;28;20313;-70
2023/03/03 11:53:50;;;;;;;15.83;9.53;;;2.10;99.90;;;;;;5091175;28;20195;-70
2023/03/03 11:56:22;;;;;;;15.27;9.37;;;2.10;99.90;;;;;;5091203;28;20234;-70
2023/03/03 11:59:09;;;;;;;18.87;10.20;;;2.10;99.90;;;;;;5091011;28;20230;-70
2023/03/03 12:01:41;;;;;;;15.70;10.00;;;2.10;99.90;;;;;;5090762;28;20282;-70
2023/03/03 12:04:13;;;;;;;14.53;9.57;;;2.10;99.90;;;;;;5090560;28;20261;-71
2023/03/03 12:06:48;;;;;;;22.70;9.33;;;2.20;99.90;;;;;;5090538;28;20269;-70
2023/03/03 12:09:40;;;;;;;18.43;10.43;;;2.20;99.90;;;;;;5090148;28;20321;-70
2023/03/03 12:12:09;;;;;;;19.90;10.00;;;2.30;99.90;;;;;;5090231;28;20810;-71
2023/03/03 12:14:52;;;;;;;16.10;9.97;;;2.40;99.90;;;;;;5090756;28;20199;-71
2023/03/03 12:17:38;;;;;;;18.33;10.37;;;2.40;99.90;;;;;;5090406;28;20291;-71
2023/03/03 12:20:14;;;;;;;27.83;15.80;;;2.40;99.90;;;;;;5090554;28;20290;-71
2023/03/03 12:22:50;;;;;;;16.70;10.83;;;2.40;99.90;;;;;;5089835;28;20260;-72
2023/03/03 12:25:30;;;;;;;18.03;9.90;;;2.50;99.90;;;;;;5090574;28;20277;-71
2023/03/03 12:28:05;;;;;;;16.97;10.30;;;2.50;99.90;;;;;;5090300;28;20628;-71
2023/03/03 12:31:14;;;;;;;15.53;10.40;;;2.50;99.90;;;;;;5074039;28;20278;-71
2023/03/03 12:33:52;;;;;;;15.93;9.53;;;2.50;99.90;;;;;;5069983;28;20658;-71
2023/03/03 12:36:40;;;;;;;15.57;9.73;;;2.50;99.90;;;;;;5070380;28;20261;-71
2023/03/03 12:39:14;;;;;;;16.50;9.77;;;2.50;99.90;;;;;;5090207;28;20225;-71
2023/03/03 12:41:46;;;;;;;16.10;10.13;;;2.50;99.90;;;;;;5089839;28;20207;-71
2023/03/03 12:44:20;;;;;;;15.90;9.50;;;2.50;99.90;;;;;;5090500;28;20227;-71
2023/03/03 12:46:58;;;;;;;16.07;10.17;;;2.50;99.90;;;;;;5089649;28;20195;-72
2023/03/03 12:49:34;;;;;;;17.53;10.20;;;2.50;99.90;;;;;;5082671;28;20211;-71
2023/03/03 12:52:14;;;;;;;16.87;9.83;;;2.50;99.90;;;;;;5089707;28;20265;-71
2023/03/03 12:54:55;;;;;;;17.43;9.97;;;2.60;99.90;;;;;;5089967;28;20289;-71
2023/03/03 12:57:30;;;;;;;18.30;10.80;;;2.60;99.90;;;;;;5090086;28;20279;-71
2023/03/03 13:00:17;;;;;;;16.70;10.03;;;2.60;99.90;;;;;;5090071;28;20237;-71
2023/03/03 13:02:52;;;;;;;16.73;10.60;;;2.70;99.90;;;;;;5089287;28;20285;-71
2023/03/03 13:05:29;;;;;;;15.93;10.17;;;2.70;99.90;;;;;;5089878;28;20599;-72
2023/03/03 13:08:13;;;;;;;21.23;11.77;;;2.70;99.90;;;;;;5089231;28;20339;-71
2023/03/03 13:10:45;;;;;;;17.67;10.67;;;2.80;99.90;;;;;;5089655;28;20226;-72
2023/03/03 13:13:18;;;;;;;17.63;11.63;;;2.80;99.90;;;;;;5089439;28;20293;-71
2023/03/03 13:15:54;;;;;;;15.73;10.43;;;2.80;99.90;;;;;;5089232;28;20744;-71